Jerozolima, Izrael

18:15 IDT dnia 31-sierpień-2015 (GMT +0300)
Givat Zeev | | Change Station
CLOSE
Current Station
Stacja PWS
Location: Givat Zeev, ISRAEL
n.p.m.: 2543 ft
Najbliższa stacja pogodowa

Wysokość 2543 ft 31.86 °N, 35.16 °E | Updated 3 minutes ago

Haze
zamglenie
78.2 ° F
Odczuwalna 80 ° F
Płn.
9.0
Wiatr zmienny Wiatr od PnPnZd
Gusts 11.0 mph

Dziś
Wysoka -- | Niska -- ° F
--% Prawdop. opadów
Wczoraj
Wysoka -- | Niska -- ° F
Precip. -- cali
6:13 AM 7:05 PM
Zmniejszający się Księżyc, 95% visible
Ciśnienie 29.95 cali
Widzialność 3.1 mil
chmury obłoki zanikające 3000 ft
Odczucie gorąca 80 ° F
Punkt rosy 65 ° F
Wilgotność 63%
Opady deszczu 0.00 cali
grubość pokrywy śnieżnej Niedostępne.
UV 1 z 12
Pyłki Niedostępne.
Jakość powietrza Niedostępne.
Flu Activity Niedostępne.
METAR OJAM 311500Z 28006KT 5000 HZ SCT030 27/12 Q1014 NOSIG
Ciśnienie 29.95 cali
Widzialność 3.1 mil
chmury obłoki zanikające 3000 ft
Odczucie gorąca 80 ° F
Punkt rosy 65 ° F
Wilgotność 63%
Opady deszczu 0.00 cali
grubość pokrywy śnieżnej Niedostępne.
UV 1 z 12
Pyłki Niedostępne.
Jakość powietrza Niedostępne.
Flu Activity Niedostępne.
METAR OJAM 311500Z 28006KT 5000 HZ SCT030 27/12 Q1014 NOSIG

10-Day Weather Forecast

×

Almanac

Astronomia

Aug. 31, 2015 Wschód Zachów
Aktualny czas
Zmierzch cywilny
Zmierzch żeglarski
świt/zmierzch astronomiczny
Księżyc
całkowite oświetlenie
Długość dnia
Tomorrow will be .
, % of the Moon is Illuminated

Dzisiejsze ekstrema

Country Highs Country Lows

Community

WunderPhotos

Upload Photos

1,851,278 zdjęcia zostały przesłane!

WunderBlogs® & News

Nearby

Jakość powietrza

  Jakość powietrza czynnik AQ Zanieczyszczenie
Not available.

Głębokość pokrywy śnieżnej

Station Depth n.p.m.

Aktywność sejsmiczna

Miejscowość Distance Mag. Time & Date
Minimum magnitude displayed is 2.5.

Temperatury wody na wybrzeżu

Miejsce Temperatura

Stations

Najbliższa stacja pogodowa

Lokalizacja stacji Temp. czynnik chłodzący wiatru Punkt rosy Wilgotność Wiatr Precip. Wysokość Uaktualniono Typ